M I D A S
Marine Information and Data Acquisition System
Tripno 401 of the Zeeleeuw from 2002-10-30 04:17:05 to 2002-10-30 16:15:50
Back to CruiseResearch ActivitiesStationsMapUnderway DataData graphs

EquipmentUnitsComment
TimeDGPSUTC
LatitudeDGPSDM.mWGS84
LongitudeDGPSDM.mWGS84
HeadingGyrodeg 
SOGDGPSknotsSpeed over ground
COGDGPSdegCourse over ground
DepthEcho soundermeters200 kHz
Missing or incorrect values are displayed as -999
Navigation data collected by the RV Zeeleeuw from 2002-10-30 04:17:05 to 2002-10-30 16:15:50
                                                                                    Next 1000 lines
Time Latitude Longitude Heading SOG COG Depth
2002-10-30 04:17:13 51°13.67 2°55.899 106.8 2.8 276.4 -999
2002-10-30 04:17:17 51°13.67 2°55.894 105.8 2.9 275.8 -999
2002-10-30 04:17:22 51°13.67 2°55.887 104.7 3 274.9 -999
2002-10-30 04:17:26 51°13.67 2°55.882 103.7 3.1 274.3 -999
2002-10-30 04:17:33 51°13.671 2°55.873 102.5 3 273.8 -999
2002-10-30 04:17:37 51°13.671 2°55.868 101.7 2.9 273.7 -999
2002-10-30 04:17:42 51°13.671 2°55.862 100.7 2.7 273.2 -999
2002-10-30 04:17:47 51°13.671 2°55.857 99.5 2.6 272.9 -999
2002-10-30 04:17:53 51°13.671 2°55.85 98.7 2.6 272.5 10.7
2002-10-30 04:17:57 51°13.671 2°55.846 97.7 2.5 272.2 11
2002-10-30 04:18:02 51°13.671 2°55.84 96.8 2.4 271.9 11
2002-10-30 04:18:06 51°13.671 2°55.836 96 2.4 271.4 10.9
2002-10-30 04:18:12 51°13.671 2°55.83 95 2.3 271.1 11
2002-10-30 04:18:17 51°13.671 2°55.826 93.8 2.3 270.8 11.1
2002-10-30 04:18:22 51°13.671 2°55.821 92.7 2.2 270.6 11.4
2002-10-30 04:18:26 51°13.671 2°55.817 91.5 2.1 270.3 11.5
2002-10-30 04:18:32 51°13.671 2°55.812 90.2 2.1 269.9 11.5
2002-10-30 04:18:37 51°13.671 2°55.808 88.7 2 269.2 11.5
2002-10-30 04:18:42 51°13.671 2°55.803 87 2 268.2 11.3
2002-10-30 04:18:46 51°13.671 2°55.8 85.3 1.9 266.9 11.2
2002-10-30 04:18:52 51°13.67 2°55.795 83.7 1.9 266 11.2
2002-10-30 04:18:56 51°13.67 2°55.792 82.2 1.8 264.4 11.3
2002-10-30 04:19:02 51°13.67 2°55.788 80.3 1.7 264.4 11.5
2002-10-30 04:19:07 51°13.67 2°55.787 77.8 1.1 271 11.6
2002-10-30 04:19:12 51°13.671 2°55.787 72.3 0.5 308.6 11.6
2002-10-30 04:19:17 51°13.673 2°55.788 64.5 0.8 16.1 11.9
2002-10-30 04:19:22 51°13.675 2°55.791 56.7 1.3 31 12
2002-10-30 04:19:26 51°13.677 2°55.792 48 1.8 28.5 11.8
2002-10-30 04:19:32 51°13.68 2°55.794 39.8 2.1 24.9 11.9
2002-10-30 04:19:37 51°13.684 2°55.796 32.5 2.5 17.1 12
2002-10-30 04:19:41 51°13.687 2°55.796 25 2.6 12.4 12.6
2002-10-30 04:19:46 51°13.691 2°55.796 17.5 2.9 4.8 12.8
2002-10-30 04:19:52 51°13.697 2°55.796 10.2 3.1 358.6 12.5
2002-10-30 04:19:57 51°13.701 2°55.794 2.7 3.3 352.2 12.7
2002-10-30 04:20:02 51°13.706 2°55.791 355.2 3.5 345.7 13
2002-10-30 04:20:07 51°13.711 2°55.788 348 3.6 338.9 13.1
2002-10-30 04:20:12 51°13.716 2°55.783 340.5 3.8 334.3 13.1
2002-10-30 04:20:17 51°13.72 2°55.777 335 4 326.9 12.4
2002-10-30 04:20:22 51°13.724 2°55.772 331.7 4 324.3 12.1
2002-10-30 04:20:26 51°13.727 2°55.768 329.5 3.9 321.3 12
2002-10-30 04:20:32 51°13.731 2°55.762 327.7 3.6 320.3 11.9
2002-10-30 04:20:37 51°13.734 2°55.758 326.5 3.1 317.9 11.6
2002-10-30 04:20:42 51°13.737 2°55.754 324.8 2.9 317.6 11.5
2002-10-30 04:20:45 51°13.738 2°55.751 322.3 2.5 314.5 11.4
2002-10-30 04:20:52 51°13.741 2°55.747 318.7 2.2 313.3 11.4
2002-10-30 04:20:57 51°13.742 2°55.743 314.7 2 310.5 11.4
2002-10-30 04:21:01 51°13.743 2°55.741 311.5 1.9 308.9 11.3
2002-10-30 04:21:06 51°13.745 2°55.737 309 1.8 305.9 11.4
2002-10-30 04:21:12 51°13.746 2°55.733 307.2 1.8 304.4 11.4
2002-10-30 04:21:17 51°13.748 2°55.73 305.7 1.8 302.5 11.5
2002-10-30 04:21:22 51°13.749 2°55.727 304.8 1.7 301.5 11.5
2002-10-30 04:21:26 51°13.75 2°55.725 304 1.7 301.1 11.5
2002-10-30 04:21:32 51°13.751 2°55.721 303.5 1.6 300.4 11.3
2002-10-30 04:21:37 51°13.752 2°55.718 303.2 1.6 300.2 11.2
2002-10-30 04:21:42 51°13.753 2°55.715 303 1.6 299.4 11.4
2002-10-30 04:21:46 51°13.754 2°55.713 303.2 1.5 300.1 11.5
2002-10-30 04:21:52 51°13.755 2°55.709 303.2 1.5 300.1 11.5
2002-10-30 04:21:57 51°13.756 2°55.706 303.5 1.5 300.6 11.5
2002-10-30 04:22:02 51°13.757 2°55.704 303.8 1.4 300.8 11.5
2002-10-30 04:22:06 51°13.758 2°55.702 304.3 1.4 301.4 11.6
2002-10-30 04:22:12 51°13.759 2°55.699 304.8 1.4 301.8 11.6
2002-10-30 04:22:17 51°13.76 2°55.696 305.5 1.4 302.2 11.6
2002-10-30 04:22:22 51°13.761 2°55.694 306 1.3 302.7 11.5
2002-10-30 04:22:26 51°13.762 2°55.692 306.7 1.3 303.9 11.6
2002-10-30 04:22:32 51°13.763 2°55.689 307.3 1.3 303.9 11.7
2002-10-30 04:22:37 51°13.764 2°55.687 308 1.2 304.8 11.7
2002-10-30 04:22:42 51°13.765 2°55.685 308.7 1.2 305.6 11.8
2002-10-30 04:22:47 51°13.766 2°55.683 309.3 1.2 307 11.8
2002-10-30 04:22:50 51°13.767 2°55.682 310.2 1.2 307.9 11.7
2002-10-30 04:22:57 51°13.768 2°55.679 310.7 1.1 308.5 11.7
2002-10-30 04:23:02 51°13.769 2°55.678 311.2 1.1 310.4 11.7
2002-10-30 04:23:06 51°13.769 2°55.677 312 0.8 311.2 11.7
2002-10-30 04:23:12 51°13.77 2°55.676 313.2 0.7 313.7 11.7
2002-10-30 04:23:17 51°13.77 2°55.676 314.5 0.3 320.3 11.7
2002-10-30 04:23:22 51°13.769 2°55.677 315.8 0.1 60.7 11.7
2002-10-30 04:23:26 51°13.769 2°55.678 317.5 0.4 126.6 11.7
2002-10-30 04:23:32 51°13.768 2°55.68 319 0.7 129.8 11.7
2002-10-30 04:23:37 51°13.767 2°55.681 320.3 1 132.9 11.7
2002-10-30 04:23:42 51°13.766 2°55.683 321.5 1 132.2 -999
2002-10-30 04:23:47 51°13.765 2°55.684 322.3 1 134.6 -999
2002-10-30 04:23:53 51°13.764 2°55.686 322.7 0.9 136.1 -999
2002-10-30 04:23:57 51°13.763 2°55.686 323 0.8 136.7 -999
2002-10-30 04:24:02 51°13.762 2°55.688 323 0.8 137.6 -999
2002-10-30 04:24:07 51°13.761 2°55.689 323.2 0.7 136.8 -999
2002-10-30 04:24:13 51°13.761 2°55.69 323 0.7 139.2 -999
2002-10-30 04:24:18 51°13.76 2°55.691 322.8 0.7 139.2 -999
2002-10-30 04:24:22 51°13.759 2°55.692 322.7 0.7 138.9 11.6
2002-10-30 04:24:27 51°13.759 2°55.693 322.5 0.6 139.6 11.6
2002-10-30 04:24:32 51°13.758 2°55.694 322.3 0.6 139.8 11.7
2002-10-30 04:24:37 51°13.758 2°55.695 322.2 0.6 139.8 11.6
2002-10-30 04:24:42 51°13.757 2°55.695 322.2 0.5 139.7 11.6
2002-10-30 04:24:46 51°13.756 2°55.696 322.2 0.5 141.4 11.6
2002-10-30 04:24:52 51°13.756 2°55.697 322.2 0.5 142.5 11.7
2002-10-30 04:24:57 51°13.755 2°55.697 322.2 0.5 145 11.7
2002-10-30 04:25:01 51°13.755 2°55.697 322.3 0.5 148.3 11.7
2002-10-30 04:25:06 51°13.754 2°55.698 322.5 0.4 154.2 11.7
2002-10-30 04:25:12 51°13.753 2°55.698 322.7 0.4 157.4 11.7
2002-10-30 04:25:17 51°13.753 2°55.698 322.8 0.4 159.6 11.7
2002-10-30 04:25:22 51°13.752 2°55.699 323 0.4 160.3 11.7
2002-10-30 04:25:26 51°13.752 2°55.699 323 0.4 159.6 11.7
2002-10-30 04:25:32 51°13.751 2°55.699 322.8 0.3 159.8 11.7
2002-10-30 04:25:37 51°13.75 2°55.699 322.8 0.3 159.8 11.7
2002-10-30 04:25:42 51°13.75 2°55.699 322.7 0.3 160.4 11.7
2002-10-30 04:25:46 51°13.75 2°55.699 322.7 0.3 160.8 11.7
2002-10-30 04:25:49 51°13.749 2°55.699 322.5 0.3 159.7 11.7
2002-10-30 04:25:57 51°13.749 2°55.7 322.5 0.3 159.7 11.7
2002-10-30 04:26:01 51°13.749 2°55.7 322.5 0.3 161.9 11.7
2002-10-30 04:26:06 51°13.748 2°55.7 322.5 0.2 161.8 11.7
2002-10-30 04:26:12 51°13.748 2°55.7 322.3 0.2 161.4 11.7
2002-10-30 04:26:17 51°13.748 2°55.701 322.3 0.2 158.3 11.7
2002-10-30 04:26:22 51°13.748 2°55.701 322.3 0.2 159.5 11.8
2002-10-30 04:26:26 51°13.747 2°55.701 322.3 0.2 165.4 11.8
2002-10-30 04:26:32 51°13.747 2°55.701 322.3 0.2 163.1 11.8
2002-10-30 04:26:37 51°13.747 2°55.701 322.3 0.1 164.2 11.8
2002-10-30 04:26:42 51°13.747 2°55.701 322.3 0.1 165 11.8
2002-10-30 04:26:46 51°13.747 2°55.701 322.5 0.1 172.2 11.8
2002-10-30 04:26:52 51°13.746 2°55.701 322.5 0.1 175.6 11.8
2002-10-30 04:26:56 51°13.746 2°55.701 322.5 0.1 173.5 11.8
2002-10-30 04:27:01 51°13.746 2°55.701 322.5 0.1 171.6 11.8
2002-10-30 04:27:05 51°13.746 2°55.701 322.7 0.1 184.2 11.8
2002-10-30 04:27:12 51°13.746 2°55.701 322.7 0.1 193.8 11.8
2002-10-30 04:27:16 51°13.746 2°55.701 322.8 0.1 198.5 11.8
2002-10-30 04:27:22 51°13.746 2°55.701 323 0.1 209.2 11.8
2002-10-30 04:27:26 51°13.746 2°55.701 323.2   211.7 11.9
2002-10-30 04:27:32 51°13.746 2°55.701 323.3 0.1 241.2 11.8
2002-10-30 04:27:37 51°13.746 2°55.7 323.3   261.3 11.9
2002-10-30 04:27:42 51°13.746 2°55.7 323.5 0.1 262.2 11.9
2002-10-30 04:27:46 51°13.746 2°55.7 323.3 0.1 265.6 11.9
2002-10-30 04:27:52 51°13.746 2°55.7 323.3 0.1 267.3 11.9
2002-10-30 04:27:57 51°13.746 2°55.7 323.2 0.1 280.4 11.9
2002-10-30 04:28:02 51°13.746 2°55.699 322.8 0.1 281.7 11.9
2002-10-30 04:28:06 51°13.746 2°55.699 322.5 0.1 285.9 11.9
2002-10-30 04:28:12 51°13.746 2°55.699 322.3 0.1 297.5 11.9
2002-10-30 04:28:16 51°13.746 2°55.699 322 0.1 306.7 11.9
2002-10-30 04:28:22 51°13.746 2°55.699 321.7 0.1 317.2 11.9
2002-10-30 04:28:26 51°13.746 2°55.698 321.5 0.1 319 11.9
2002-10-30 04:28:32 51°13.746 2°55.698 321.3 0.1 321.6 11.9
2002-10-30 04:28:36 51°13.746 2°55.698 321.3 0.1 320.2 11.9
2002-10-30 04:28:41 51°13.747 2°55.698 321.2 0.1 327.5 11.9
2002-10-30 04:28:50 51°13.747 2°55.698 321.3 0.1 337.9 11.9
2002-10-30 04:28:54 51°13.747 2°55.698 321.3 0.1 337.2 11.9
2002-10-30 04:29:01 51°13.747 2°55.698 321.5 0.1 341.5 11.8
2002-10-30 04:29:06 51°13.747 2°55.698 321.7 0.1 342.1 11.8
2002-10-30 04:29:10 51°13.748 2°55.698 321.8 0.1 349.5 11.8
2002-10-30 04:29:14 51°13.748 2°55.697 322.2 0.1 339.7 11.8
2002-10-30 04:29:21 51°13.748 2°55.697 322.3 0.1 339.3 11.8
2002-10-30 04:29:25 51°13.748 2°55.697 322.7 0.1 337.1 11.8
2002-10-30 04:29:30 51°13.748 2°55.697 322.8 0.1 334.3 11.8
2002-10-30 04:29:34 51°13.748 2°55.697 323 0.1 323.5 11.8
2002-10-30 04:29:41 51°13.748 2°55.697 323.2 0.1 320.1 11.8
2002-10-30 04:29:45 51°13.749 2°55.697 323.2 0.1 318.7 11.8
2002-10-30 04:29:50 51°13.749 2°55.696 323 0.1 316.4 11.8
2002-10-30 04:29:56 51°13.749 2°55.696 323 0.1 315.2 11.8
2002-10-30 04:30:01 51°13.749 2°55.696 322.8 0.1 317.2 11.8
2002-10-30 04:30:05 51°13.749 2°55.696 322.8 0.1 310 11.8
2002-10-30 04:30:11 51°13.749 2°55.695 322.7 0.1 303.7 11.8
2002-10-30 04:30:14 51°13.749 2°55.695 322.7 0.1 296.8 11.7
2002-10-30 04:30:21 51°13.749 2°55.695 322.3 0.2 292.7 11.6
2002-10-30 04:30:26 51°13.749 2°55.694 322.2 0.1 295.1 11.5
2002-10-30 04:30:31 51°13.749 2°55.694 321.8 0.2 293.8 11.5
2002-10-30 04:30:35 51°13.749 2°55.694 321.3 0.2 291.7 11.4
2002-10-30 04:30:41 51°13.749 2°55.693 320.8 0.2 288.8 11.4
2002-10-30 04:30:45 51°13.749 2°55.693 320.3 0.2 293.1 11.4
2002-10-30 04:30:51 51°13.75 2°55.693 319.8 0.2 293.9 11.4
2002-10-30 04:30:54 51°13.75 2°55.692 319.3 0.2 294.2 11.4
2002-10-30 04:31:01 51°13.75 2°55.692 318.8 0.2 296.4 11.4
2002-10-30 04:31:05 51°13.75 2°55.692 318.2 0.2 300.5 11.5
2002-10-30 04:31:10 51°13.75 2°55.691 317.8 0.2 305.5 11.5
2002-10-30 04:31:14 51°13.751 2°55.691 317.3 0.2 306.9 11.5
2002-10-30 04:31:21 51°13.751 2°55.691 317 0.2 309.9 11.5
2002-10-30 04:31:26 51°13.751 2°55.69 316.8 0.2 314.2 11.5
2002-10-30 04:31:30 51°13.751 2°55.69 316.7 0.2 320.8 11.5
2002-10-30 04:31:36 51°13.751 2°55.69 316.7 0.2 320.8 11.5
2002-10-30 04:31:41 51°13.752 2°55.689 316.8 0.2 321.8 11.5
2002-10-30 04:31:45 51°13.752 2°55.689 316.8 0.3 324.7 11.5
2002-10-30 04:31:51 51°13.752 2°55.689 317 0.2 322.2 11.5
2002-10-30 04:31:54 51°13.752 2°55.689 317.2 0.2 317.5 11.6
2002-10-30 04:32:01 51°13.753 2°55.688 317.2 0.3 315.5 11.6
2002-10-30 04:32:06 51°13.753 2°55.688 317.2 0.3 312.9 11.6
2002-10-30 04:32:11 51°13.753 2°55.687 317 0.3 313.6 11.6
2002-10-30 04:32:14 51°13.754 2°55.687 316.8 0.3 309.1 11.6
2002-10-30 04:32:21 51°13.754 2°55.686 316.8 0.3 308.9 11.6
2002-10-30 04:32:26 51°13.754 2°55.686 316.7 0.3 310.8 11.6
2002-10-30 04:32:30 51°13.754 2°55.686 316.5 0.3 310.9 11.7
2002-10-30 04:32:34 51°13.754 2°55.685 316.3 0.3 309.4 11.7
2002-10-30 04:32:41 51°13.755 2°55.685 316.2 0.3 309.9 11.7
2002-10-30 04:32:45 51°13.755 2°55.684 316.2 0.3 312.5 11.7
2002-10-30 04:32:51 51°13.755 2°55.684 316 0.3 312.9 11.7
2002-10-30 04:32:56 51°13.755 2°55.683 315.8 0.3 313.6 11.7
2002-10-30 04:33:01 51°13.755 2°55.683 315.7 0.3 318.2 11.7
2002-10-30 04:33:05 51°13.756 2°55.683 315.7 0.3 319.4 11.7
2002-10-30 04:33:09 51°13.756 2°55.683 315.3 0.3 318.5 11.8
2002-10-30 04:33:14 51°13.756 2°55.682 315.3 0.3 317.4 11.8
2002-10-30 04:33:21 51°13.756 2°55.682 315.2 0.3 320 11.8
2002-10-30 04:33:26 51°13.757 2°55.681 315 0.3 322.3 11.9
2002-10-30 04:33:30 51°13.757 2°55.681 314.8 0.3 323.4 11.9
2002-10-30 04:33:34 51°13.757 2°55.681 314.7 0.3 325.4 11.9
2002-10-30 04:33:41 51°13.758 2°55.68 314.5 0.3 326.1 11.9
2002-10-30 04:33:45 51°13.758 2°55.68 314.5 0.3 329.3 11.9
2002-10-30 04:33:50 51°13.758 2°55.68 314.3 0.3 330.1 12
2002-10-30 04:33:54 51°13.758 2°55.68 314.3 0.3 329.1 12
2002-10-30 04:34:01 51°13.759 2°55.679 314.3 0.3 327 12
2002-10-30 04:34:06 51°13.759 2°55.679 314.2 0.3 325.9 12
2002-10-30 04:34:09 51°13.759 2°55.679 314.2 0.3 319.8 12
2002-10-30 04:34:21 51°13.76 2°55.678 313.7 0.3 316.4 12
2002-10-30 04:34:26 51°13.76 2°55.677 313.3 0.3 314.3 12.1
2002-10-30 04:34:30 51°13.76 2°55.677 313 0.3 313.4 12.1
2002-10-30 04:34:34 51°13.761 2°55.676 312.7 0.3 310.8 12.1
2002-10-30 04:34:41 51°13.761 2°55.675 312.3 0.3 310.2 12.1
2002-10-30 04:34:45 51°13.761 2°55.675 312.2 0.3 310.4 12.2
2002-10-30 04:34:50 51°13.761 2°55.674 312 0.3 311.5 12.2
2002-10-30 04:34:55 51°13.762 2°55.674 312 0.3 313.2 12.2
2002-10-30 04:35:01 51°13.762 2°55.673 312 0.3 314.6 12.2
2002-10-30 04:35:06 51°13.762 2°55.673 312.2 0.3 314.7 12.2
2002-10-30 04:35:10 51°13.762 2°55.672 312.3 0.3 314.6 12.2
2002-10-30 04:35:14 51°13.763 2°55.672 312.5 0.3 318 12.2
2002-10-30 04:35:21 51°13.763 2°55.671 312.7 0.3 319.4 12.3
2002-10-30 04:35:25 51°13.763 2°55.671 312.8 0.3 319.4 12.3
2002-10-30 04:35:30 51°13.764 2°55.67 313 0.3 317.8 12.3
2002-10-30 04:35:34 51°13.764 2°55.67 313.2 0.3 317.7 12.3
2002-10-30 04:35:41 51°13.765 2°55.669 313.3 0.4 315.4 12.3
2002-10-30 04:35:45 51°13.765 2°55.668 313.3 0.4 316.4 12.3
2002-10-30 04:35:50 51°13.765 2°55.668 313.5 0.4 317.2 12.3
2002-10-30 04:35:54 51°13.766 2°55.667 313.7 0.4 318.2 12.3
2002-10-30 04:36:01 51°13.766 2°55.666 313.7 0.4 319 12.3
2002-10-30 04:36:06 51°13.767 2°55.666 313.8 0.4 319.6 12.3
2002-10-30 04:36:10 51°13.767 2°55.665 314.2 0.4 321.3 12.3
2002-10-30 04:36:14 51°13.767 2°55.665 314.3 0.4 322.2 12.3
2002-10-30 04:36:21 51°13.768 2°55.664 314.7 0.4 322.2 12.3
2002-10-30 04:36:25 51°13.768 2°55.664 314.8 0.4 322.1 12.3
2002-10-30 04:36:30 51°13.768 2°55.663 315 0.4 322.4 12.3
2002-10-30 04:36:36 51°13.769 2°55.663 315.2 0.4 321.9 12.3
2002-10-30 04:36:41 51°13.769 2°55.662 315.3 0.4 324.4 12.3
2002-10-30 04:36:45 51°13.77 2°55.662 315.7 0.5 324 12.4
2002-10-30 04:36:50 51°13.771 2°55.661 316.2 0.6 325.3 12.5
2002-10-30 04:36:56 51°13.772 2°55.66 316.7 0.8 326.1 12.4
2002-10-30 04:37:01 51°13.773 2°55.659 317.5 0.9 328.6 12.3
2002-10-30 04:37:05 51°13.774 2°55.658 318.5 1 329.1 12.4
2002-10-30 04:37:10 51°13.775 2°55.656 319.5 1.2 329.9 12.4
2002-10-30 04:37:14 51°13.776 2°55.655 320.5 1.3 332.4 12.3
2002-10-30 04:37:21 51°13.779 2°55.653 321.2 1.5 333 12.3
2002-10-30 04:37:26 51°13.782 2°55.651 321.5 1.8 333.7 12.3
2002-10-30 04:37:30 51°13.784 2°55.65 321.7 2.3 334.5 12.3
2002-10-30 04:37:34 51°13.787 2°55.648 321.5 2.7 335.7 12.2
2002-10-30 04:37:41 51°13.793 2°55.644 321.3 3.1 335.8 12.4
2002-10-30 04:37:45 51°13.797 2°55.641 321.7 3.4 336.1 12.5
2002-10-30 04:37:51 51°13.803 2°55.637 321.8 3.8 336.7 12.2
2002-10-30 04:37:56 51°13.809 2°55.632 321.8 4 337 12.4
2002-10-30 04:38:01 51°13.815 2°55.628 321.7 4.4 337.1 12.3
2002-10-30 04:38:05 51°13.82 2°55.624 321.7 4.6 337 12
2002-10-30 04:38:11 51°13.827 2°55.619 321.7 4.8 337.2 12.2
2002-10-30 04:38:14 51°13.831 2°55.616 321.8 5.1 337.3 12.1
2002-10-30 04:38:21 51°13.841 2°55.61 322 5.3 337.4 12.3
2002-10-30 04:38:25 51°13.847 2°55.606 322 5.5 337.6 12.2
2002-10-30 04:38:30 51°13.854 2°55.602 321.8 5.7 337.5 12.3
2002-10-30 04:38:34 51°13.86 2°55.598 321.7 5.8 337.5 12.2
2002-10-30 04:38:41 51°13.87 2°55.591 321.8 5.9 337.5 12
2002-10-30 04:38:45 51°13.876 2°55.586 321.8 6 337.1 12.4
2002-10-30 04:38:50 51°13.884 2°55.581 321.7 6.1 337.3 12
2002-10-30 04:38:54 51°13.891 2°55.577 321.5 6.3 337.2 12.5
2002-10-30 04:39:01 51°13.902 2°55.57 321.5 6.3 337.1 12.1
2002-10-30 04:39:06 51°13.91 2°55.564 321.2 6.4 336.9 11.9
2002-10-30 04:39:09 51°13.915 2°55.561 321 6.5 336.7 11.8
2002-10-30 04:39:14 51°13.923 2°55.555 321 6.5 337 11.6
2002-10-30 04:39:21 51°13.935 2°55.548 321.3 6.6 338 11.7
2002-10-30 04:39:25 51°13.942 2°55.545 321.7 6.6 338.3 11.7
2002-10-30 04:39:30 51°13.95 2°55.539 321.3 6.7 337.9 11.7
2002-10-30 04:39:36 51°13.96 2°55.533 320.8 6.7 338 11.5
2002-10-30 04:39:41 51°13.969 2°55.527 320.5 6.8 337.8 11.5
2002-10-30 04:39:45 51°13.976 2°55.523 320.8 6.8 338.5 12.1
2002-10-30 04:39:50 51°13.985 2°55.517 320.8 6.9 338.1 11.9
2002-10-30 04:39:56 51°13.995 2°55.51 320.2 6.9 337.8 11.6
2002-10-30 04:40:01 51°14.004 2°55.504 319.7 6.9 337 11.6
2002-10-30 04:40:05 51°14.011 2°55.499 319.3 7 336.6 11.7
2002-10-30 04:40:11 51°14.022 2°55.491 319 7 336.1 11.8
2002-10-30 04:40:16 51°14.031 2°55.485 318.5 7 335.9 11.7
2002-10-30 04:40:21 51°14.04 2°55.478 318.3 7.1 335.3 11.8
2002-10-30 04:40:25 51°14.047 2°55.472 318.3 7.2 335.2 11.8
2002-10-30 04:40:30 51°14.057 2°55.465 318.5 7.3 335.1 11.7
2002-10-30 04:40:34 51°14.064 2°55.46 318.8 7.4 335.3 11.4
2002-10-30 04:40:41 51°14.078 2°55.45 318.7 7.5 335.5 11.6
2002-10-30 04:40:46 51°14.087 2°55.443 318.3 7.6 335.4 11.6
2002-10-30 04:40:51 51°14.097 2°55.435 318.2 7.6 335.3 11.8
2002-10-30 04:40:54 51°14.103 2°55.431 318.3 7.7 335.4 11.8
2002-10-30 04:41:01 51°14.117 2°55.421 318.8 7.8 336 11.3
2002-10-30 04:41:06 51°14.127 2°55.414 318.8 7.8 336.2 11.3
2002-10-30 04:41:10 51°14.134 2°55.409 318.5 7.8 336.3 11.3
2002-10-30 04:41:14 51°14.142 2°55.403 317.7 7.8 335.4 11.6
2002-10-30 04:41:21 51°14.156 2°55.392 316.5 7.9 334.7 11.6
2002-10-30 04:41:25 51°14.164 2°55.386 315.5 7.9 333.9 11.9
2002-10-30 04:41:31 51°14.175 2°55.376 314.2 7.9 332.8 11.7
2002-10-30 04:41:34 51°14.181 2°55.371 312.5 7.9 331.3 11.7
2002-10-30 04:41:41 51°14.194 2°55.359 310.5 7.9 329.4 11.7
2002-10-30 04:41:46 51°14.203 2°55.349 308.3 7.9 327.9 11.7
2002-10-30 04:41:51 51°14.212 2°55.339 306.3 7.9 325.2 11.8
2002-10-30 04:41:56 51°14.221 2°55.328 304.7 7.9 324 11.8
2002-10-30 04:42:01 51°14.229 2°55.317 303 7.9 321.4 11.9
2002-10-30 04:42:06 51°14.238 2°55.306 301.5 7.9 320.3 11.9
2002-10-30 04:42:10 51°14.244 2°55.296 300.2 7.9 319 11.8
2002-10-30 04:42:16 51°14.254 2°55.282 299 7.9 317.4 11.8
2002-10-30 04:42:21 51°14.261 2°55.27 297.7 7.9 316 11.7
2002-10-30 04:42:26 51°14.269 2°55.257 295.8 7.9 314.4 11.8
2002-10-30 04:42:30 51°14.275 2°55.246 293.7 8.1 312.7 11.8
2002-10-30 04:42:35 51°14.282 2°55.232 291.3 8.3 311.1 11.8
2002-10-30 04:42:41 51°14.291 2°55.213 289.2 8.8 308.5 11.8
2002-10-30 04:42:46 51°14.299 2°55.197 287.7 9 307.2 11.7
2002-10-30 04:42:51 51°14.307 2°55.179 286.5 9.4 305.9 11.8
2002-10-30 04:42:56 51°14.314 2°55.162 285.5 9.7 304.7 11.8
2002-10-30 04:43:01 51°14.322 2°55.143 284.5 9.9 303.7 11.8
2002-10-30 04:43:06 51°14.329 2°55.124 283.5 10.1 302.7 11.8
2002-10-30 04:43:10 51°14.335 2°55.109 282.5 10.3 301.7 11.7
2002-10-30 04:43:16 51°14.343 2°55.085 281.8 10.3 300.8 11.8
2002-10-30 04:43:21 51°14.351 2°55.065 281.3 10.5 300.3 12.3
2002-10-30 04:43:25 51°14.357 2°55.048 280.2 10.7 299.7 12
2002-10-30 04:43:30 51°14.364 2°55.027 279.5 10.9 299.9 11.6
2002-10-30 04:43:34 51°14.371 2°55.01 280.3 11.1 301.4 11.5
2002-10-30 04:43:41 51°14.384 2°54.981 282.8 11.4 303.8 11.7
2002-10-30 04:43:45 51°14.392 2°54.965 287 11.8 307 11.6
2002-10-30 04:43:50 51°14.404 2°54.945 291.2 12.2 312.2 11.7
2002-10-30 04:43:54 51°14.414 2°54.93 295 12.6 316.4 11.7
2002-10-30 04:44:01 51°14.434 2°54.905 298.8 12.9 320.1 12.1
2002-10-30 04:44:05 51°14.446 2°54.891 302.2 13 322.9 11.6
2002-10-30 04:44:11 51°14.464 2°54.872 305 13.2 326.2 11.7
2002-10-30 04:44:16 51°14.48 2°54.857 306.3 13.3 327.8 11.5
2002-10-30 04:44:21 51°14.496 2°54.841 306.5 13.3 327.9 11.4
2002-10-30 04:44:25 51°14.508 2°54.828 305.5 13.3 327.4 11.4
2002-10-30 04:44:30 51°14.523 2°54.812 305 13.3 326.7 11.4
2002-10-30 04:44:36 51°14.542 2°54.793 305.7 13.4 327.4 11.3
2002-10-30 04:44:41 51°14.558 2°54.778 307.3 13.4 328.9 11.3
2002-10-30 04:44:50 51°14.588 2°54.753 309.8 13.5 331.7 11.2
2002-10-30 04:44:54 51°14.601 2°54.741 309.8 13.4 331.6 11.2
2002-10-30 04:45:00 51°14.62 2°54.723 308.2 13.4 331.3 11.1
2002-10-30 04:45:04 51°14.632 2°54.71 304.8 13.3 327.5 11.1
2002-10-30 04:45:10 51°14.65 2°54.689 302.7 13.3 325.2 11.1
2002-10-30 04:45:14 51°14.662 2°54.675 301 13.3 323.3 11.1
2002-10-30 04:45:20 51°14.679 2°54.654 300 13.3 322.7 11.2
2002-10-30 04:45:25 51°14.694 2°54.636 300 13.3 322.3 11.2
2002-10-30 04:45:30 51°14.709 2°54.618 299.7 13.3 322.4 11.3
2002-10-30 04:45:34 51°14.721 2°54.604 300.8 13.4 323.1 11.3
2002-10-30 04:45:40 51°14.74 2°54.584 303.2 13.5 324.7 11.2
2002-10-30 04:45:45 51°14.756 2°54.569 306 13.6 328.1 11.2
2002-10-30 04:45:49 51°14.769 2°54.558 309.5 13.6 330.8 11.1
2002-10-30 04:45:54 51°14.787 2°54.546 313.3 13.6 334.8 11.1
2002-10-30 04:45:59 51°14.804 2°54.535 315.5 13.7 337.1 11.1
2002-10-30 04:46:05 51°14.826 2°54.521 315.8 13.7 338.1 11
2002-10-30 04:46:10 51°14.843 2°54.51 316.2 13.8 338.2 11
2002-10-30 04:46:14 51°14.858 2°54.501 317.3 13.9 339 11
2002-10-30 04:46:20 51°14.88 2°54.489 319.2 13.9 340.7 11
2002-10-30 04:46:25 51°14.898 2°54.481 321.2 13.9 342.7 11
2002-10-30 04:46:30 51°14.917 2°54.474 323.7 13.9 344.6 10.7
2002-10-30 04:46:34 51°14.932 2°54.469 326.2 13.9 347.6 10.5
2002-10-30 04:46:40 51°14.955 2°54.464 329.3 14 350.5 10.3
2002-10-30 04:46:45 51°14.974 2°54.461 332.2 14 353.3 10.2
2002-10-30 04:46:50 51°14.994 2°54.459 335.5 14 355.8 10.2
2002-10-30 04:46:54 51°15.009 2°54.459 338.2 14 359.1 10.2
2002-10-30 04:47:00 51°15.032 2°54.462 341.5 14 2.3 10
2002-10-30 04:47:04 51°15.048 2°54.465 344.5 14 5.3 10
2002-10-30 04:47:10 51°15.071 2°54.47 346.5 14 7 9.7
2002-10-30 04:47:14 51°15.086 2°54.473 347.3 14 8.2 10
2002-10-30 04:47:20 51°15.109 2°54.481 349.5 14 10.1 10
2002-10-30 04:47:24 51°15.124 2°54.486 351.3 14.1 12.2 10
2002-10-30 04:47:30 51°15.147 2°54.496 354.2 14.2 14 10.1
2002-10-30 04:47:34 51°15.162 2°54.504 356.5 14.2 17 10.1
2002-10-30 04:47:40 51°15.184 2°54.517 358.7 14.2 19.1 10.1
2002-10-30 04:47:45 51°15.203 2°54.528   14.3 20.1 10.3
2002-10-30 04:47:50 51°15.221 2°54.539 359.7 14.3 20.4 10.3
2002-10-30 04:47:54 51°15.236 2°54.548 359.8 14.3 20.2 10.4
2002-10-30 04:48:00 51°15.259 2°54.561 359.8 14.3 20 10.3
2002-10-30 04:48:05 51°15.277 2°54.571 358.5 14.3 19.4 10.3
2002-10-30 04:48:10 51°15.296 2°54.582 359.5 14.3 20 10.4
2002-10-30 04:48:14 51°15.311 2°54.589 358.2 14.3 18.7 10.4
2002-10-30 04:48:20 51°15.333 2°54.602 358.7 14.3 19.3 10.4
2002-10-30 04:48:25 51°15.352 2°54.612 358.7 14.3 18.6 10.7
2002-10-30 04:48:30 51°15.371 2°54.624   14.4 20.1 10.4
2002-10-30 04:48:34 51°15.386 2°54.632 359.8 14.4 19.9 10.5
2002-10-30 04:48:40 51°15.408 2°54.646 0.7 14.4 21.1 10.6
2002-10-30 04:48:45 51°15.426 2°54.658 1.2 14.4 21.3 10.7
2002-10-30 04:48:50 51°15.445 2°54.67 2.2 14.4 22.3 10.6
2002-10-30 04:48:54 51°15.459 2°54.68 2.7 14.4 22.8 10.7
2002-10-30 04:49:00 51°15.482 2°54.695 2.3 14.4 22.7 10.7
2002-10-30 04:49:05 51°15.499 2°54.709 4.2 14.5 24.3 10.8
2002-10-30 04:49:09 51°15.514 2°54.719 5 14.4 24.5 10.8
2002-10-30 04:49:14 51°15.531 2°54.734 6.7 14.4 26.7 10.8
2002-10-30 04:49:20 51°15.553 2°54.751 7 14.4 26.5 10.8
2002-10-30 04:49:25 51°15.57 2°54.767 8.3 14.4 28.3 10.9
2002-10-30 04:49:30 51°15.587 2°54.783 10.5 14.4 29.9 10.7
2002-10-30 04:49:34 51°15.601 2°54.797 12.5 14.4 32.3 10.8
2002-10-30 04:49:40 51°15.62 2°54.821 16.3 14.3 36 10.9
2002-10-30 04:49:44 51°15.632 2°54.837 19.3 14.4 38.8 10.9
2002-10-30 04:49:50 51°15.649 2°54.864 22.7 14.4 42.1 10.9
2002-10-30 04:49:54 51°15.66 2°54.882 25.2 14.5 44.4 11
2002-10-30 04:50:00 51°15.677 2°54.909 25.7 14.4 44.4 11
2002-10-30 04:50:05 51°15.69 2°54.934 29.2 14.5 48.3 10.9
2002-10-30 04:50:09 51°15.7 2°54.954 32.2 14.5 50.2 10.9
2002-10-30 04:50:14 51°15.711 2°54.981 36 14.5 54.7 10.9
2002-10-30 04:50:20 51°15.724 2°55.013 38.3 14.5 56.4 10.9
2002-10-30 04:50:25 51°15.734 2°55.041 40.7 14.5 58.9 10.9
2002-10-30 04:50:30 51°15.744 2°55.068 41.3 14.5 59.6 11
2002-10-30 04:50:34 51°15.752 2°55.091 41.7 14.5 60.7 11
2002-10-30 04:50:39 51°15.762 2°55.118 41.7 14.5 60.3 11
2002-10-30 04:50:45 51°15.773 2°55.152 42.7 14.4 61.1 11.1
2002-10-30 04:50:50 51°15.783 2°55.18 41.8 14.5 60.6 11
2002-10-30 04:50:54 51°15.792 2°55.202 41 14.5 59.9 11
2002-10-30 04:50:59 51°15.802 2°55.23 41.3 14.6 59.7 11
2002-10-30 04:51:02 51°15.808 2°55.246 41.2 14.5 59.2 11
2002-10-30 04:51:09 51°15.822 2°55.285 41.5 14.5 60 10.9
2002-10-30 04:51:14 51°15.832 2°55.313 40.8 14.5 59.7 11
2002-10-30 04:51:20 51°15.845 2°55.345 39.3 14.5 58 11
2002-10-30 04:51:25 51°15.855 2°55.373 40.7 14.5 59.4 11
2002-10-30 04:51:30 51°15.866 2°55.4 38.8 14.5 57.7 10.9
2002-10-30 04:51:34 51°15.874 2°55.422 39.8 14.5 58.3 11
2002-10-30 04:51:40 51°15.888 2°55.454 38.8 14.5 57.3 11
2002-10-30 04:51:45 51°15.899 2°55.481 39.5 14.5 57.9 11
2002-10-30 04:51:50 51°15.909 2°55.509 40.3 14.6 58.5 11
2002-10-30 04:51:54 51°15.918 2°55.531 39 14.7 57.4 11
2002-10-30 04:52:00 51°15.931 2°55.564 40 14.6 57.9 11
2002-10-30 04:52:05 51°15.942 2°55.59 38.8 14.6 56.8 11.1
2002-10-30 04:52:10 51°15.953 2°55.618 39.3 14.6 57.5 11.1
2002-10-30 04:52:14 51°15.962 2°55.639 38.2 14.7 56.3 10.9
2002-10-30 04:52:20 51°15.974 2°55.673 39.7 14.7 57.3 11
2002-10-30 04:52:25 51°15.987 2°55.698 38 14.6 55.9 11
2002-10-30 04:52:30 51°15.997 2°55.726 38.3 14.6 56.8 11.1
2002-10-30 04:52:34 51°16.006 2°55.748 39 14.6 56.7 11.2
2002-10-30 04:52:40 51°16.02 2°55.78 39.2 14.7 56.8 11.1
2002-10-30 04:52:44 51°16.029 2°55.802 38.2 14.7 56.3 11
2002-10-30 04:52:50 51°16.043 2°55.834 38 14.7 55.9 11.1
2002-10-30 04:52:54 51°16.051 2°55.855 38.5 14.6 56.1 11.2
2002-10-30 04:53:00 51°16.065 2°55.888 38.3 14.6 56.1 11.1
2002-10-30 04:53:05 51°16.077 2°55.914 37 14.7 54.9 11.1
2002-10-30 04:53:10 51°16.088 2°55.941 37.3 14.7 54.9 11.2
2002-10-30 04:53:14 51°16.098 2°55.962 37.7 14.6 55.2 11.1
2002-10-30 04:53:20 51°16.111 2°55.994 37.7 14.5 55.4 11.2
2002-10-30 04:53:25 51°16.122 2°56.02 38.2 14.5 55.8 11.2
2002-10-30 04:53:30 51°16.134 2°56.047 38.2 14.7 55.8 11.1
2002-10-30 04:53:34 51°16.143 2°56.069 38.8 14.8 56.3 11.1
2002-10-30 04:53:40 51°16.157 2°56.101 39.2 14.7 56.1 11.2
2002-10-30 04:53:45 51°16.168 2°56.128 38.3 14.6 55.6 11.3
2002-10-30 04:53:50 51°16.18 2°56.154 38.2 14.6 55.8 11.2
2002-10-30 04:53:54 51°16.189 2°56.175 37.5 14.6 54.7 11.1
2002-10-30 04:54:00 51°16.203 2°56.207 37.5 14.7 55.7 11.2
2002-10-30 04:54:05 51°16.214 2°56.235 38 14.7 55.4 11.1
2002-10-30 04:54:09 51°16.224 2°56.255 38.5 14.6 55.2 11.2
2002-10-30 04:54:14 51°16.235 2°56.282 38.2 14.7 55.7 11.2
2002-10-30 04:54:20 51°16.25 2°56.313 37.3 14.7 54.5 11.3
2002-10-30 04:54:24 51°16.258 2°56.335 38.3 14.6 55.5 11.3
2002-10-30 04:54:30 51°16.273 2°56.366 37.8 14.6 54.7 11.2
2002-10-30 04:54:34 51°16.281 2°56.388 38.2 14.6 55.7 11.3
2002-10-30 04:54:40 51°16.296 2°56.42 38.2 14.7 54.7 11.3
2002-10-30 04:54:45 51°16.308 2°56.447 37.7 14.8 54.7 11.2
2002-10-30 04:54:50 51°16.32 2°56.473 37.3 14.8 54.1 11.3
2002-10-30 04:54:54 51°16.329 2°56.495 38 14.7 54.9 11.3
2002-10-30 04:55:00 51°16.344 2°56.526 36.8 14.7 54.2 11.3
2002-10-30 04:55:05 51°16.355 2°56.553 38.2 14.8 54.8 11.3
2002-10-30 04:55:09 51°16.365 2°56.574 38.3 14.9 54.4 11.2
2002-10-30 04:55:14 51°16.376 2°56.602 39.8 14.8 56 11.3
2002-10-30 04:55:20 51°16.39 2°56.635 39.7 14.8 56.2 11.3
2002-10-30 04:55:25 51°16.401 2°56.662 40.3 14.7 56.8 11.3
2002-10-30 04:55:30 51°16.412 2°56.69 41.3 14.7 57.8 11.3
2002-10-30 04:55:34 51°16.421 2°56.711 41.3 14.8 57.5 11.2
2002-10-30 04:55:39 51°16.431 2°56.74 42.3 14.8 58.6 11.2
2002-10-30 04:55:45 51°16.445 2°56.773 41.7 14.9 58 11.2
2002-10-30 04:55:50 51°16.455 2°56.8 41.7 14.8 58 11.2
2002-10-30 04:55:54 51°16.464 2°56.823 42.7 14.7 58.4 11.2
2002-10-30 04:56:00 51°16.477 2°56.856 41.8 14.8 58.1 11.2
2002-10-30 04:56:05 51°16.487 2°56.885 43 14.8 58.9 11.2
2002-10-30 04:56:10 51°16.498 2°56.912 42.2 14.8 58.3 11.1
2002-10-30 04:56:14 51°16.506 2°56.935 44.3 14.8 58.8 11.1
2002-10-30 04:56:19 51°16.517 2°56.963 42.3 14.8 58.4 11.1
2002-10-30 04:56:25 51°16.53 2°56.997 42.7 14.9 58.9 11.2
2002-10-30 04:56:29 51°16.539 2°57.018 42.7 14.9 58.3 11.2
2002-10-30 04:56:34 51°16.549 2°57.047 42.2 14.9 58.5 11.2
2002-10-30 04:56:40 51°16.563 2°57.08 42.3 14.8 57.6 11.2
2002-10-30 04:56:45 51°16.574 2°57.107 42.7 14.8 58.3 11.2
2002-10-30 04:56:50 51°16.584 2°57.136 42.7 14.8 58.1 11.2
2002-10-30 04:56:54 51°16.593 2°57.158 42.2 14.9 57.6 11.2
2002-10-30 04:57:00 51°16.606 2°57.191 42.7 14.8 57.3 11.2
2002-10-30 04:57:05 51°16.617 2°57.219 43.7 14.7 58.6 11.2
2002-10-30 04:57:10 51°16.628 2°57.246 42.5 14.8 57.9 11.2
2002-10-30 04:57:14 51°16.636 2°57.269 43.8 14.8 58.7 11.3
2002-10-30 04:57:20 51°16.65 2°57.302 42.8 14.9 58.2 11.3
2002-10-30 04:57:25 51°16.661 2°57.33 42.7 14.8 57.6 11.2
2002-10-30 04:57:30 51°16.672 2°57.358 42.7 14.8 57.6 11.3
2002-10-30 04:57:34 51°16.681 2°57.38 42.2 14.9 57.1 11.1
2002-10-30 04:57:40 51°16.694 2°57.414 43 14.9 57.2 11.2
2002-10-30 04:57:45 51°16.706 2°57.44 42.2 14.9 56.9 11.2
2002-10-30 04:57:50 51°16.716 2°57.468 42.8 14.9 57.9 11.2
2002-10-30 04:57:54 51°16.726 2°57.49 42.5 14.8 56.8 11.3
2002-10-30 04:58:00 51°16.74 2°57.523 41.7 14.9 56 11.2
2002-10-30 04:58:05 51°16.751 2°57.55 41.2 14.9 56.1 11.2
2002-10-30 04:58:10 51°16.762 2°57.577 42 14.8 56.3 11.2
2002-10-30 04:58:14 51°16.771 2°57.6 42.7 14.8 57.4 11.3
2002-10-30 04:58:20 51°16.784 2°57.633 43.8 14.8 57.5 11.2
2002-10-30 04:58:25 51°16.795 2°57.661 44 14.9 58.2 11.2
2002-10-30 04:58:30 51°16.806 2°57.688 43.2 14.9 57.2 11.2
2002-10-30 04:58:34 51°16.814 2°57.711 44.7 14.8 58.7 11.1
2002-10-30 04:58:40 51°16.827 2°57.744 44 14.8 58 11.2
2002-10-30 04:58:45 51°16.838 2°57.772 44.8 14.8 58.6 11.1
2002-10-30 04:58:50 51°16.85 2°57.799 43.7 14.9 57.4 11.2
2002-10-30 04:58:54 51°16.858 2°57.823 44.3 14.9 58.4 11.1
2002-10-30 04:59:00 51°16.872 2°57.855 43.2 14.9 57 11.2
2002-10-30 04:59:05 51°16.882 2°57.884 44 14.9 57.9 11.1
2002-10-30 04:59:10 51°16.894 2°57.911 42.8 14.9 56.5 11.1
2002-10-30 04:59:14 51°16.903 2°57.933 43.5 14.9 57 11.1
2002-10-30 04:59:20 51°16.917 2°57.966 43.7 15 57.1 11.1
2002-10-30 04:59:25 51°16.928 2°57.994 44.5 15 57.5 11.1
2002-10-30 04:59:30 51°16.94 2°58.021 43.5 14.9 57 11.1
2002-10-30 04:59:34 51°16.947 2°58.045 45.2 14.9 58.1 11.1
2002-10-30 04:59:40 51°16.961 2°58.077 44.5 14.9 57.3 11.2
2002-10-30 04:59:45 51°16.972 2°58.105 44.5 14.9 57.4 11.1
2002-10-30 04:59:49 51°16.981 2°58.127 44.2 14.9 57.1 11.1
2002-10-30 04:59:54 51°16.993 2°58.155 43.8 14.9 56.6 11.1
2002-10-30 05:00:00 51°17.006 2°58.188 44.3 14.8 57 11.2
2002-10-30 05:00:05 51°17.017 2°58.215 44.8 14.8 57.4 11.1
2002-10-30 05:00:10 51°17.028 2°58.244 45.3 14.8 58 11
2002-10-30 05:00:14 51°17.037 2°58.266 45.7 14.8 58.1 10.9
2002-10-30 05:00:20 51°17.049 2°58.299 46 14.8 57.9 11
2002-10-30 05:00:25 51°17.06 2°58.327 46 14.8 58.3 10.9
2002-10-30 05:00:30 51°17.071 2°58.354 45.8 14.7 57.7 10.9
2002-10-30 05:00:34 51°17.08 2°58.376 46.3 14.7 58.2 10.9
2002-10-30 05:00:39 51°17.091 2°58.404 44.7 14.7 57.3 10.8
2002-10-30 05:00:45 51°17.104 2°58.437 45.8 14.7 57.8 10.8
2002-10-30 05:00:50 51°17.116 2°58.464 44.7 14.7 57.4 10.8
2002-10-30 05:00:54 51°17.123 2°58.487 47.7 14.7 59.3 10.8
2002-10-30 05:01:00 51°17.137 2°58.52 47.7 14.8 58.5 10.7
2002-10-30 05:01:05 51°17.146 2°58.549 47.8 14.8 59.8 10.7
2002-10-30 05:01:10 51°17.157 2°58.576 47 14.8 58.3 10.8
2002-10-30 05:01:14 51°17.165 2°58.599 48.5 14.7 59.8 10.8
2002-10-30 05:01:20 51°17.178 2°58.632 47 14.7 58.5 10.8
2002-10-30 05:01:25 51°17.189 2°58.66 47.7 14.7 58.7 10.7
2002-10-30 05:01:30 51°17.199 2°58.688 47.8 14.7 58.7 10.7
2002-10-30 05:01:34 51°17.208 2°58.71 47 14.8 58 10.6
2002-10-30 05:01:40 51°17.221 2°58.743 46.8 14.7 57.7 10.6
2002-10-30 05:01:44 51°17.23 2°58.764 46.8 14.7 57.2 10.6
2002-10-30 05:01:50 51°17.244 2°58.797 45.3 14.6 56 10.6
2002-10-30 05:01:54 51°17.252 2°58.819 45.5 14.7 56.5 10.6
2002-10-30 05:02:00 51°17.267 2°58.851 45.5 14.8 56 10.5
2002-10-30 05:02:05 51°17.278 2°58.878 45.5 14.8 56.1 10.6
2002-10-30 05:02:10 51°17.289 2°58.906 47 14.7 57 10.5
2002-10-30 05:02:14 51°17.298 2°58.927 46 14.7 56.7 10.6
2002-10-30 05:02:20 51°17.31 2°58.962 49 14.7 59 10.6
2002-10-30 05:02:25 51°17.322 2°58.988 46.5 14.8 56.8 10.5
2002-10-30 05:02:30 51°17.332 2°59.016 46.8 14.8 57.2 10.6
2002-10-30 05:02:34 51°17.342 2°59.038 47 14.8 57 10.6
2002-10-30 05:02:40 51°17.355 2°59.071 47.2 14.8 57.2 10.6
2002-10-30 05:02:45 51°17.365 2°59.099 48.8 14.7 58.3 10.5
2002-10-30 05:02:50 51°17.377 2°59.126 47.5 14.8 57.9 10.5
2002-10-30 05:02:55 51°17.387 2°59.154 47.8 14.8 57.8 10.4
2002-10-30 05:03:00 51°17.398 2°59.182 49.7 14.7 58.2 10.4
2002-10-30 05:03:05 51°17.409 2°59.21 48.5 14.8 58 10.4
2002-10-30 05:03:10 51°17.42 2°59.238 48.3 14.9 57.7 10.4
2002-10-30 05:03:14 51°17.428 2°59.26 49.5 14.8 58.5 10.4
2002-10-30 05:03:20 51°17.442 2°59.294 48.8 14.8 57.9 10.4
2002-10-30 05:03:25 51°17.452 2°59.322 49 14.9 58.4 10.4
2002-10-30 05:03:30 51°17.463 2°59.349 49.2 14.8 57.9 10.5
2002-10-30 05:03:34 51°17.472 2°59.371 49.3 14.7 58.3 10.4
2002-10-30 05:03:38 51°17.48 2°59.393 49.2 14.7 58.3 10.5
2002-10-30 05:03:45 51°17.496 2°59.433 50 14.9 58.2 10.5
2002-10-30 05:03:50 51°17.507 2°59.46 49 15 57.7 10.4
2002-10-30 05:03:54 51°17.515 2°59.483 49.7 14.8 58.4 10.4
2002-10-30 05:03:59 51°17.526 2°59.511 49.8 14.8 58 10.4
2002-10-30 05:04:05 51°17.539 2°59.544 50.8 14.8 58.7 10.3
2002-10-30 05:04:10 51°17.55 2°59.572 49.7 14.8 58.3 10.4
2002-10-30 05:04:14 51°17.558 2°59.595 50.5 14.9 58.7 10.3
2002-10-30 05:04:20 51°17.572 2°59.629 50.7 15 58.6 10.4
2002-10-30 05:04:25 51°17.582 2°59.658 51 15 59 10.4
2002-10-30 05:04:29 51°17.591 2°59.68 51.2 14.9 58.6 10.4
2002-10-30 05:04:34 51°17.601 2°59.709 52 14.9 59.6 10.4
2002-10-30 05:04:38 51°17.61 2°59.731 52 14.9 59.5 10.3
2002-10-30 05:04:45 51°17.625 2°59.771 51.3 14.9 58.9 10.3
2002-10-30 05:04:50 51°17.635 2°59.799 51.7 14.9 59.1 10.2
2002-10-30 05:04:54 51°17.644 2°59.821 50.8 14.9 58.3 10.2
2002-10-30 05:05:00 51°17.656 2°59.855 52.3 14.9 59.8 10.2
2002-10-30 05:05:05 51°17.667 2°59.883 51.3 14.8 58.5 10
2002-10-30 05:05:10 51°17.677 2°59.911 52.5 14.8 59.8 10.1
2002-10-30 05:05:14 51°17.686 2°59.933 52.2 14.8 59.4 10.1
2002-10-30 05:05:20 51°17.699 2°59.967 52.5 14.8 59.1 10.4
2002-10-30 05:05:25 51°17.709 2°59.996 51.5 14.9 58.8 10.3
2002-10-30 05:05:30 51°17.72 3°0.023 51.2 15 58.1 10.5
2002-10-30 05:05:34 51°17.729 3°0.046 51.7 14.9 58.5 10.3
2002-10-30 05:05:40 51°17.742 3°0.08 52.2 14.9 58.4 10.2
2002-10-30 05:05:45 51°17.752 3°0.108 52.5 14.8 58.9 10.3
2002-10-30 05:05:50 51°17.762 3°0.137 53.7 14.8 59.4 10.2
2002-10-30 05:05:54 51°17.77 3°0.16 53.5 14.9 59.6 10
2002-10-30 05:06:00 51°17.783 3°0.194 53.8 14.9 59.3 10
2002-10-30 05:06:05 51°17.794 3°0.222 53.5 14.9 59.2 9.9
2002-10-30 05:06:10 51°17.804 3°0.25 53.2 14.8 59.4 9.9
2002-10-30 05:06:14 51°17.813 3°0.272 53.7 14.8 59 10
2002-10-30 05:06:18 51°17.822 3°0.295 52.8 14.8 58.9 10
2002-10-30 05:06:30 51°17.847 3°0.362 53 14.8 58.4 9.9
2002-10-30 05:06:34 51°17.856 3°0.384 52.8 14.8 58.2 9.9
2002-10-30 05:06:40 51°17.868 3°0.418 53.2 14.8 57.9 9.9
2002-10-30 05:06:45 51°17.88 3°0.445 52.5 14.8 57.8 10.1
2002-10-30 05:06:50 51°17.889 3°0.474 54 14.8 59 10.1
2002-10-30 05:06:54 51°17.898 3°0.496 54.3 14.8 58.7 10
2002-10-30 05:07:00 51°17.91 3°0.53 54.5 14.8 59.2 10
2002-10-30 05:07:05 51°17.921 3°0.559 54.8 14.8 59.8 10
2002-10-30 05:07:10 51°17.932 3°0.586 53.8 14.8 58.9 10
2002-10-30 05:07:14 51°17.939 3°0.609 54.7 14.8 59.5 10
2002-10-30 05:07:20 51°17.952 3°0.643 54.5 14.8 59.2 10
2002-10-30 05:07:25 51°17.963 3°0.671 53.7 14.8 58.2 9.9
2002-10-30 05:07:30 51°17.974 3°0.699 54.2 14.8 58.5 10
2002-10-30 05:07:34 51°17.983 3°0.721 54.3 14.8 58.3 10
2002-10-30 05:07:40 51°17.995 3°0.755 55.7 14.8 58.6 9.9
2002-10-30 05:07:45 51°18.006 3°0.783 55.2 14.9 58.7 9.8
2002-10-30 05:07:50 51°18.017 3°0.811 54.5 14.9 58.3 9.7
2002-10-30 05:07:54 51°18.025 3°0.833 54.7 14.8 58.4 9.7
2002-10-30 05:08:00 51°18.037 3°0.866 55.3 14.6 59.1 9.8
2002-10-30 05:08:05 51°18.048 3°0.894 55.7 14.7 59.5 9.7
2002-10-30 05:08:10 51°18.059 3°0.923 54.2 14.9 58 9.7
2002-10-30 05:08:14 51°18.067 3°0.946 55.5 15 58.9 9.7
2002-10-30 05:08:20 51°18.081 3°0.979 55.2 15 58.3 9.8
2002-10-30 05:08:25 51°18.091 3°1.007 57 14.8 59.9 9.8
2002-10-30 05:08:30 51°18.101 3°1.036 57 14.8 59.9 9.7
2002-10-30 05:08:34 51°18.109 3°1.059 57.3 14.8 60.3 9.7
2002-10-30 05:08:40 51°18.121 3°1.093 57.7 14.8 60.3 9.7
2002-10-30 05:08:45 51°18.132 3°1.121 56.5 14.8 59.1 9.8
2002-10-30 05:08:50 51°18.142 3°1.149 57.2 14.8 59.6 9.8
2002-10-30 05:08:54 51°18.151 3°1.171 57 14.7 59.1 9.8
2002-10-30 05:09:00 51°18.163 3°1.205 57.2 14.7 59.5 9.8
2002-10-30 05:09:05 51°18.174 3°1.233 56.3 14.8 58.9 9.9
2002-10-30 05:09:09 51°18.182 3°1.256 56.7 14.9 59 9.7
2002-10-30 05:09:14 51°18.193 3°1.284 56.5 14.9 59 9.7
2002-10-30 05:09:20 51°18.205 3°1.317 57.5 14.7 59.6 9.8
2002-10-30 05:09:25 51°18.215 3°1.345 57.5 14.6 59.6 9.8
2002-10-30 05:09:30 51°18.225 3°1.374 57.7 14.7 59.7 9.8
2002-10-30 05:09:34 51°18.234 3°1.396 57.3 14.8 59.3 9.8
2002-10-30 05:09:40 51°18.247 3°1.43 57.7 14.8 59.1 9.8
2002-10-30 05:09:45 51°18.257 3°1.458 58.7 14.8 59.7 9.9
2002-10-30 05:09:50 51°18.267 3°1.486 57.7 14.8 59.5 9.7
2002-10-30 05:09:54 51°18.275 3°1.509 58.3 14.8 59.6 9.8
2002-10-30 05:10:00 51°18.289 3°1.542 57.2 14.8 58.2 9.7
2002-10-30 05:10:05 51°18.299 3°1.57 58.3 14.7 59.4 9.7
2002-10-30 05:10:10 51°18.31 3°1.597 56.2 14.8 57.6 9.6
2002-10-30 05:10:14 51°18.319 3°1.62 56.5 14.8 57.3 9.7
2002-10-30 05:10:20 51°18.331 3°1.653 57.7 14.8 58.3 9.6
2002-10-30 05:10:25 51°18.342 3°1.681 57.3 14.8 57.8 9.7
2002-10-30 05:10:30 51°18.353 3°1.708 57.7 14.8 57.9 9.7
2002-10-30 05:10:34 51°18.362 3°1.73 57.2 14.8 57.6 9.7
2002-10-30 05:10:40 51°18.375 3°1.764 57.8 14.8 58.3 9.6
2002-10-30 05:10:45 51°18.386 3°1.791 57.5 14.7 57.7 9.7
2002-10-30 05:10:50 51°18.396 3°1.819 58.8 14.7 58.6 9.7
2002-10-30 05:10:54 51°18.405 3°1.841 58.5 14.8 58.3 9.6
2002-10-30 05:11:00 51°18.418 3°1.875 58.5 14.9 58 9.6
2002-10-30 05:11:05 51°18.428 3°1.903 59.3 14.8 59.1 9.6
2002-10-30 05:11:10 51°18.438 3°1.932 60.7 14.8 59.5 9.7
2002-10-30 05:11:14 51°18.447 3°1.954 61.3 14.8 60.2 9.7
2002-10-30 05:11:20 51°18.458 3°1.989 62.5 14.8 61.3 9.7
2002-10-30 05:11:24 51°18.467 3°2.011 62.5 14.7 61 9.7
2002-10-30 05:11:30 51°18.478 3°2.046 62.8 14.8 62 9.6
2002-10-30 05:11:34 51°18.487 3°2.069 61.5 14.9 60.3 9.6
2002-10-30 05:11:40 51°18.499 3°2.103 61.7 14.9 60.1 9.6
2002-10-30 05:11:44 51°18.507 3°2.126 61.7 14.7 60.1 9.6
2002-10-30 05:11:50 51°18.519 3°2.16 62.2 14.6 60.5 9.6
2002-10-30 05:11:54 51°18.527 3°2.182 61.5 14.7 60.2 9.6
2002-10-30 05:12:00 51°18.54 3°2.215 60.2 14.7 58.8 9.6
2002-10-30 05:12:05 51°18.55 3°2.244 61.5 14.8 59.4 9.6
2002-10-30 05:12:10 51°18.562 3°2.271 59.8 14.8 58.3 9.5
2002-10-30 05:12:14 51°18.57 3°2.293 60 14.7 58.4 9.5
2002-10-30 05:12:20 51°18.582 3°2.326 60.8 14.7 58.6 9.5
2002-10-30 05:12:25 51°18.592 3°2.355 62.3 14.7 60.1 9.5
2002-10-30 05:12:30 51°18.603 3°2.383 62.2 14.8 59.8 9.3
2002-10-30 05:12:34 51°18.611 3°2.406 61.7 14.8 59.6 9.3
2002-10-30 05:12:40 51°18.623 3°2.44 62.7 14.8 59.8 9.3
2002-10-30 05:12:45 51°18.634 3°2.468 62 14.8 59.7 9.4
2002-10-30 05:12:50 51°18.644 3°2.496 62.5 14.8 60 9.5
2002-10-30 05:12:54 51°18.652 3°2.519 63 14.8 60.3 9.5
2002-10-30 05:13:00 51°18.665 3°2.552 61.7 14.7 58.6 9.4
2002-10-30 05:13:05 51°18.675 3°2.581 62.8 14.7 59.7 9.4
2002-10-30 05:13:10 51°18.686 3°2.608 62.2 14.7 58.5 9.4
2002-10-30 05:13:14 51°18.694 3°2.631 61.2 14.8 58.3 9.4
2002-10-30 05:13:18 51°18.703 3°2.652 60.8 14.8 57.6 9.4
2002-10-30 05:13:24 51°18.716 3°2.686 61.8 14.7 57.8 9.4
2002-10-30 05:13:30 51°18.729 3°2.719 61.2 14.7 57.7 9.4
2002-10-30 05:13:34 51°18.738 3°2.741 60.7 14.7 57.2 9.4
2002-10-30 05:13:40 51°18.751 3°2.774 61.3 14.7 57.2 9.4
2002-10-30 05:13:45 51°18.762 3°2.801 61.2 14.7 57.2 9.4
2002-10-30 05:13:49 51°18.771 3°2.823 61.7 14.7 57.6 9.3
2002-10-30 05:13:54 51°18.782 3°2.85 61.8 14.7 57.8 9.4
2002-10-30 05:14:00 51°18.794 3°2.884 62.7 14.7 58.4 9.4
2002-10-30 05:14:05 51°18.805 3°2.911 62.5 14.6 58.2 9.4
2002-10-30 05:14:10 51°18.816 3°2.938 62.2 14.6 57.6 9.4
2002-10-30 05:14:14 51°18.825 3°2.961 62.3 14.7 57.9 9.3
2002-10-30 05:14:20 51°18.838 3°2.994 62 14.7 57.8 9.4
2002-10-30 05:14:25 51°18.849 3°3.021 62.5 14.6 57.9 9.5
2002-10-30 05:14:30 51°18.859 3°3.049 62.7 14.7 58.2 9.5
2002-10-30 05:14:35 51°18.87 3°3.077 63.2 14.7 58.5 9.5
2002-10-30 05:14:40 51°18.881 3°3.104 63.5 14.7 58.5 9.5
2002-10-30 05:14:45 51°18.891 3°3.133 64.2 14.7 59 9.6
2002-10-30 05:14:50 51°18.902 3°3.16 63.7 14.7 58.6 9.7
2002-10-30 05:14:54 51°18.91 3°3.183 64.5 14.7 58.9 9.7
2002-10-30 05:15:00 51°18.923 3°3.216 64 14.7 58.8 9.5
2002-10-30 05:15:05 51°18.933 3°3.245 65 14.7 59.3 9.6
2002-10-30 05:15:09 51°18.941 3°3.267 64.7 14.8 59.4 9.5
2002-10-30 05:15:14 51°18.952 3°3.296 65.2 14.9 59.8 9.6
2002-10-30 05:15:20 51°18.965 3°3.329 64.5 14.9 58.9 9.6
2002-10-30 05:15:25 51°18.974 3°3.358 65.3 14.8 59.8 9.6
2002-10-30 05:15:30 51°18.985 3°3.386 66.5 14.7 59.9 9.6
2002-10-30 05:15:34 51°18.993 3°3.409 67.3 14.7 61 9.6
2002-10-30 05:15:40 51°19.005 3°3.443 65.3 14.7 60.6 9.6
2002-10-30 05:15:45 51°19.014 3°3.472 67.8 14.8 61.2 9.6
2002-10-30 05:15:49 51°19.023 3°3.494 66.3 14.9 60.2 9.6
2002-10-30 05:15:54 51°19.033 3°3.523 65.7 14.9 59.6 9.6
2002-10-30 05:16:00 51°19.046 3°3.557 66.2 14.8 59.1 9.7
2002-10-30 05:16:05 51°19.057 3°3.584 65.3 14.8 58.6 9.7
2002-10-30 05:16:10 51°19.068 3°3.612 65 14.8 58.5 9.7
2002-10-30 05:16:15 51°19.078 3°3.64 65.5 14.8 58.3 9.5
2002-10-30 05:16:20 51°19.089 3°3.668 66.3 14.7 58.7 9.5
2002-10-30 05:16:25 51°19.1 3°3.696 65.2 14.8 58.1 9.6
2002-10-30 05:16:30 51°19.11 3°3.723 65 14.7 58 9.6
2002-10-30 05:16:34 51°19.118 3°3.746 66.5 14.7 58.6 9.5
2002-10-30 05:16:40 51°19.132 3°3.779 64.3 14.7 57.6 9.6
2002-10-30 05:16:45 51°19.143 3°3.806 64.5 14.8 57.3 9.6
2002-10-30 05:16:50 51°19.154 3°3.833 65.2 14.7 57.5 9.6
2002-10-30 05:16:54 51°19.162 3°3.856 65.8 14.7 58.1 9.8
2002-10-30 05:17:00 51°19.176 3°3.888 64.7 14.6 57.7 9.5
2002-10-30 05:17:05 51°19.187 3°3.916 64.7 14.8 57.1 9.6
2002-10-30 05:17:09 51°19.196 3°3.938 65 14.8 57.1 10
2002-10-30 05:17:14 51°19.206 3°3.966 65.8 14.8 57.7 9.6
2002-10-30 05:17:20 51°19.219 3°3.999 66.2 14.7 58.3 9.8
2002-10-30 05:17:25 51°19.23 3°4.027 67 14.6 58.6 9.9
2002-10-30 05:17:30 51°19.24 3°4.055 67 14.7 58.7 9.8
2002-10-30 05:17:34 51°19.249 3°4.076 65.7 14.7 57.4 9.7
2002-10-30 05:17:40 51°19.263 3°4.109 65.8 14.7 57.7 9.7
2002-10-30 05:17:45 51°19.274 3°4.137 65.2 14.8 56.8 9.7
2002-10-30 05:17:50 51°19.286 3°4.163 64.8 14.7 56.1 9.8
2002-10-30 05:17:54 51°19.295 3°4.185 64.3 14.6 56.2 9.7
2002-10-30 05:18:00 51°19.308 3°4.217 65.7 14.5 56.5 9.7
2002-10-30 05:18:05 51°19.32 3°4.244 64.5 14.7 55.9 9.6
2002-10-30 05:18:10 51°19.331 3°4.271 64.8 14.7 55.7 9.7
2002-10-30 05:18:13 51°19.337 3°4.288 65 14.7 55.9 9.6
2002-10-30 05:18:18 51°19.35 3°4.314 65 14.8 55.7 9.5
2002-10-30 05:18:24 51°19.362 3°4.347 66 14.7 56.7 9.5
2002-10-30 05:18:30 51°19.376 3°4.38 66.3 14.7 57 9.5
2002-10-30 05:18:35 51°19.387 3°4.407 67.3 14.6 57.2 9.6
2002-10-30 05:18:40 51°19.397 3°4.435 67.5 14.7 57.8 9.6
2002-10-30 05:18:45 51°19.409 3°4.461 66 14.8 56.4 9.6
2002-10-30 05:18:50 51°19.42 3°4.489 66.2 14.7 56.4 9.6
2002-10-30 05:18:55 51°19.431 3°4.515 66.2 14.6 56.2 9.6
2002-10-30 05:19:00 51°19.443 3°4.542 65.3 14.7 55.6 9.6
2002-10-30 05:19:05 51°19.455 3°4.569 65 14.8 55 9.6
2002-10-30 05:19:10 51°19.467 3°4.595 64.5 14.8 54.5 9.6
2002-10-30 05:19:14 51°19.476 3°4.616 63.8 14.8 53.9 9.7
2002-10-30 05:19:20 51°19.491 3°4.648 64.2 14.7 53.6 9.6
2002-10-30 05:19:24 51°19.501 3°4.669 63.8 14.8 53.4 9.6
2002-10-30 05:19:29 51°19.513 3°4.695 64.5 14.8 53.9 9.6
2002-10-30 05:19:34 51°19.525 3°4.722 65.7 14.7 55 9.6
2002-10-30 05:19:38 51°19.533 3°4.744 66.7 14.6 56.3 9.7
2002-10-30 05:19:45 51°19.549 3°4.782 67.5 14.7 56.8 9.6
2002-10-30 05:19:50 51°19.561 3°4.81 67.2 14.9 56.6 9.6
2002-10-30 05:19:54 51°19.57 3°4.831 66.8 14.9 56 9.6
2002-10-30 05:20:00 51°19.584 3°4.863 66.8 14.8 55.9 9.6
2002-10-30 05:20:05 51°19.595 3°4.891 67.5 14.7 56.6 9.7
2002-10-30 05:20:10 51°19.606 3°4.917 66.7 14.6 55.8 9.6
2002-10-30 05:20:14 51°19.615 3°4.939 66.7 14.6 55.8 9.6
2002-10-30 05:20:20 51°19.629 3°4.971 67.2 14.7 55.8 9.6
2002-10-30 05:20:25 51°19.64 3°4.999 67.7 14.7 56.1 9.6
2002-10-30 05:20:30 51°19.652 3°5.026 67.3 14.7 56.4 9.5
2002-10-30 05:20:34 51°19.661 3°5.048 67.5 14.7 56.1 9.6
2002-10-30 05:20:40 51°19.674 3°5.08 67.7 14.8 56.1 9.5
2002-10-30 05:20:45 51°19.686 3°5.107 67.3 14.8 56 9.6
2002-10-30 05:20:50 51°19.696 3°5.135 69.5 14.7 57.5 9.6
2002-10-30 05:20:54 51°19.706 3°5.156 69.2 14.7 57.1 9.6
2002-10-30 05:20:58 51°19.714 3°5.178 69.8 14.7 58.1 9.6
2002-10-30 05:21:05 51°19.73 3°5.217 70.3 14.8 57.8 9.6
2002-10-30 05:21:10 51°19.74 3°5.245 70.3 14.8 58.5 9.6
2002-10-30 05:21:14 51°19.749 3°5.267 69.5 14.8 57.5 9.6
2002-10-30 05:21:20 51°19.761 3°5.301 71.3 14.7 59 9.6
2002-10-30 05:21:25 51°19.773 3°5.328 70.2 14.7 57.9 9.6
2002-10-30 05:21:30 51°19.782 3°5.357 71.8 14.7 59.5 9.6
2002-10-30 05:21:35 51°19.793 3°5.384 70.7 14.8 58.3 9.5
2002-10-30 05:21:40 51°19.803 3°5.413 71.8 14.7 59 9.6
2002-10-30 05:21:45 51°19.814 3°5.44 71.7 14.6 58.6 9.5
2002-10-30 05:21:50 51°19.824 3°5.468 71.7 14.6 59.4 9.6
2002-10-30 05:21:54 51°19.832 3°5.491 72.5 14.7 59.6 9.6
2002-10-30 05:22:00 51°19.845 3°5.524 71.5 14.7 59.1 9.6
2002-10-30 05:22:05 51°19.856 3°5.552 71.7 14.7 58.8 9.6
2002-10-30 05:22:09 51°19.864 3°5.574 71.8 14.7 58.6 9.6
2002-10-30 05:22:14 51°19.875 3°5.602 71.7 14.7 58.3 9.6
2002-10-30 05:22:20 51°19.888 3°5.635 71.2 14.9 58.1 9.5
2002-10-30 05:22:25 51°19.899 3°5.663 70.7 14.9 57.7 9.5
2002-10-30 05:22:30 51°19.909 3°5.691 71.2 14.8 58.5 9.5
2002-10-30 05:22:34 51°19.917 3°5.713 72.8 14.7 59.3 9.4
2002-10-30 05:22:40 51°19.931 3°5.746 73 14.7 58.7 9.4
2002-10-30 05:22:45 51°19.941 3°5.775 72.8 14.9 59.1 9.5
2002-10-30 05:22:50 51°19.952 3°5.802 72 14.9 58.2 9.4
2002-10-30 05:22:54 51°19.96 3°5.825 71.5 14.9 58 9.4
2002-10-30 05:23:00 51°19.974 3°5.858 70.8 14.8 57.1 9.4
2002-10-30 05:23:04 51°19.983 3°5.879 68.5 14.9 54.9 9.4
2002-10-30 05:23:10 51°19.998 3°5.91 67.3 14.8 53.9 9.5
2002-10-30 05:23:15 51°20.01 3°5.937 67.3 14.7 53.2 9.5
2002-10-30 05:23:20 51°20.024 3°5.961 64.2 14.8 51.2 9.5
2002-10-30 05:23:25 51°20.038 3°5.986 62.5 14.9 48.6 9.4
2002-10-30 05:23:30 51°20.052 3°6.01 61.2 14.9 47.1 9.4
2002-10-30 05:23:34 51°20.064 3°6.028 59.2 14.8 45.6 9.4
2002-10-30 05:23:40 51°20.082 3°6.055 57.5 14.8 45.6 9.4
2002-10-30 05:23:45 51°20.097 3°6.077 56.2 14.8 42.9 9.4
2002-10-30 05:23:50 51°20.113 3°6.098 54.7 14.8 41.4 9.5
2002-10-30 05:23:54 51°20.125 3°6.117 54.8 14.8 41.6 9.5
2002-10-30 05:24:00 51°20.145 3°6.14 52.3 14.8 38.8 9.5
2002-10-30 05:24:05 51°20.159 3°6.162 54.8 14.7 40.6 9.5
2002-10-30 05:24:10 51°20.176 3°6.182 52.2 14.7 38.7 9.4
2002-10-30 05:24:14 51°20.188 3°6.199 53.7 14.7 39.7 9.5
2002-10-30 05:24:20 51°20.207 3°6.224 53.8 14.7 39.6 9.5
2002-10-30 05:24:25 51°20.222 3°6.246 55.3 14.8 40.9 9.5
2002-10-30 05:24:30 51°20.238 3°6.266 54.5 14.8 40 9.5
2002-10-30 05:24:34 51°20.25 3°6.285 56.5 14.7 42.2 9.4
2002-10-30 05:24:40 51°20.269 3°6.309 54.7 14.7 41.1 9.4
2002-10-30 05:24:45 51°20.283 3°6.333 57.8 14.6 43.3 9.4
2002-10-30 05:24:50 51°20.298 3°6.354 58.2 14.6 43.1 9.4
2002-10-30 05:24:54 51°20.31 3°6.374 58.5 14.8 44.3 9.4
2002-10-30 05:25:00 51°20.327 3°6.401 59.2 14.8 44.1 9.4
2002-10-30 05:25:05 51°20.341 3°6.424 60.7 14.7 45.4 9.4
2002-10-30 05:25:10 51°20.356 3°6.447 60.3 14.7 45 9.4
2002-10-30 05:25:14 51°20.368 3°6.465 59.3 14.7 44.6 9.3
2002-10-30 05:25:20 51°20.385 3°6.492 58.7 14.7 44.1 9.3
2002-10-30 05:25:25 51°20.4 3°6.514 58.8 14.6 43.4 9.3
2002-10-30 05:25:30 51°20.415 3°6.536 57.7 14.7 43.2 9.3
2002-10-30 05:25:34 51°20.427 3°6.554 57.5 14.8 42.5 9.3
2002-10-30 05:25:40 51°20.446 3°6.579 57.7 14.7 42.1 9.3
2002-10-30 05:25:45 51°20.46 3°6.602 58.7 14.6 43.1 9.3
2002-10-30 05:25:50 51°20.476 3°6.623 57.5 14.6 41.9 9.4
2002-10-30 05:25:54 51°20.487 3°6.642 58.8 14.7 43.2 9.2
2002-10-30 05:26:00 51°20.506 3°6.667 57 14.7 42.7 9.3
2002-10-30 05:26:05 51°20.521 3°6.69 58.5 14.7 42.6 9.3
2002-10-30 05:26:09 51°20.533 3°6.705 56.3 14.7 40.9 9.2
2002-10-30 05:26:14 51°20.548 3°6.729 57.7 14.6 42.4 9.3
2002-10-30 05:26:20 51°20.567 3°6.754 57.8 14.7 41.7 9.3
2002-10-30 05:26:25 51°20.582 3°6.776 58.3 14.7 42.2 9.2
2002-10-30 05:26:30 51°20.596 3°6.798 58.7 14.7 42.7 9.3
2002-10-30 05:26:34 51°20.608 3°6.816 59.5 14.6 43.2 9.3
2002-10-30 05:26:40 51°20.626 3°6.843 60.2 14.6 44 9.2
2002-10-30 05:26:45 51°20.642 3°6.865 58.7 14.7 42.5 9.2
2002-10-30 05:26:49 51°20.654 3°6.882 57.8 14.7 42.2 9.2
2002-10-30 05:26:54 51°20.669 3°6.904 58.2 14.7 41.3 9.2
2002-10-30 05:27:00 51°20.687 3°6.93 58.3 14.7 41.5 9.2
2002-10-30 05:27:05 51°20.703 3°6.952 58 14.7 41.8 9.2
2002-10-30 05:27:10 51°20.718 3°6.973 58.2 14.8 41.7 9.2
2002-10-30 05:27:14 51°20.731 3°6.99 58.8 14.8 42.2 9.2
2002-10-30 05:27:20 51°20.749 3°7.016 58 14.8 41.6 9.2
2002-10-30 05:27:25 51°20.764 3°7.038 58.7 14.8 41.9 9.2
2002-10-30 05:27:30 51°20.78 3°7.059 57.8 14.8 41.1 9.1
2002-10-30 05:27:34 51°20.792 3°7.077 59.8 14.7 42.9 9.1
2002-10-30 05:27:40 51°20.81 3°7.103 58.7 14.7 41.6 9.1
2002-10-30 05:27:45 51°20.826 3°7.125 58.3 14.7 41.5 9.1
2002-10-30 05:27:49 51°20.838 3°7.142 57.8 14.8 41 9.2
2002-10-30 05:27:54 51°20.854 3°7.163 57.2 14.8 40.1 9.2
2002-10-30 05:28:00 51°20.873 3°7.188 56.2 14.7 39 9.3
2002-10-30 05:28:05 51°20.888 3°7.21 57 14.7 40.1 9.3
2002-10-30 05:28:10 51°20.904 3°7.229 55.7 14.7 38.9 9.4
2002-10-30 05:28:14 51°20.916 3°7.248 58.2 14.7 40.8 9.3
2002-10-30 05:28:20 51°20.936 3°7.272 56.3 14.8 39.3 9.3
2002-10-30 05:28:25 51°20.951 3°7.295 58.7 14.8 41.4 9.4
2002-10-30 05:28:29 51°20.963 3°7.312 59.3 14.8 41.9 9.4
2002-10-30 05:28:34 51°20.978 3°7.335 60.5 14.8 42.9 9.4
2002-10-30 05:28:40 51°20.996 3°7.362 60.7 14.8 42.7 9.4
2002-10-30 05:28:45 51°21.011 3°7.384 60.5 14.8 42.9 9.5
2002-10-30 05:28:50 51°21.025 3°7.407 61.3 14.8 43.9 9.5
2002-10-30 05:28:54 51°21.038 3°7.424 60.7 14.8 42.7 9.5
2002-10-30 05:29:00 51°21.055 3°7.452 61 14.8 43.4 9.5
2002-10-30 05:29:05 51°21.071 3°7.473 60.7 14.7 42.8 9.6
2002-10-30 05:29:10 51°21.085 3°7.497 61.8 14.7 44.1 9.5
2002-10-30 05:29:14 51°21.098 3°7.513 60.7 14.8 42.6 9.6
2002-10-30 05:29:20 51°21.116 3°7.541 61.3 14.8 43.9 9.7
2002-10-30 05:29:24 51°21.128 3°7.559 60.5 14.9 42.8 9.7
2002-10-30 05:29:29 51°21.143 3°7.581 60.7 14.8 42.3 9.8
2002-10-30 05:29:34 51°21.159 3°7.602 58.5 14.8 41.1 9.8
2002-10-30 05:29:40 51°21.177 3°7.628 58.5 14.8 40.8 9.9
2002-10-30 05:29:45 51°21.193 3°7.649 58.8 14.8 40.9 9.9
2002-10-30 05:29:50 51°21.209 3°7.671 59 14.8 40.9 10
2002-10-30 05:29:54 51°21.221 3°7.689 59.5 14.9 41.4 10
2002-10-30 05:30:00 51°21.239 3°7.716 60.5 14.9 42.7 10
2002-10-30 05:30:05 51°21.255 3°7.738 60.5 14.9 42.3 10
2002-10-30 05:30:10 51°21.269 3°7.761 61.8 14.8 43.4 10.2
2002-10-30 05:30:14 51°21.281 3°7.779 62.3 14.9 43.7 10.3
2002-10-30 05:30:20 51°21.3 3°7.807 61.8 14.9 43.7 10.3
2002-10-30 05:30:25 51°21.315 3°7.83 62.2 14.9 43.9 10.4
2002-10-30 05:30:30 51°21.329 3°7.853 62.3 14.9 44.1 10.4
2002-10-30 05:30:34 51°21.341 3°7.871 62.7 14.9 44.1 10.5
2002-10-30 05:30:38 51°21.353 3°7.889 62.2 14.9 44.2 10.6
2002-10-30 05:30:45 51°21.374 3°7.922 62.2 14.9 43.9 10.7
2002-10-30 05:30:50 51°21.389 3°7.944 61.7 15 43.2 10.8
2002-10-30 05:30:54 51°21.401 3°7.964 62.8 15 44.1 10.8
2002-10-30 05:31:00 51°21.419 3°7.99 61.5 14.9 43.1 10.9
2002-10-30 05:31:05 51°21.434 3°8.013 62.3 14.9 44.1 10.9
2002-10-30 05:31:10 51°21.449 3°8.036 62.2 14.9 43.6 11.1
2002-10-30 05:31:14 51°21.461 3°8.054 62 14.9 43.8 11.2
2002-10-30 05:31:20 51°21.479 3°8.082 61.7 14.9 43.5 11.2
2002-10-30 05:31:25 51°21.494 3°8.104 62 15 43.5 11.3
2002-10-30 05:31:30 51°21.509 3°8.127 62 14.9 43.5 11.3
2002-10-30 05:31:34 51°21.522 3°8.144 61.7 14.8 42.8 11.2
2002-10-30 05:31:40 51°21.539 3°8.173 62.8 14.9 44.1 11.4
2002-10-30 05:31:45 51°21.555 3°8.195 61.7 15 43 11.4
2002-10-30 05:31:50 51°21.569 3°8.218 62.7 15 44.1 11.5
2002-10-30 05:31:54 51°21.582 3°8.236 61.8 15 43.2 11.5
2002-10-30 05:31:58 51°21.593 3°8.255 61.8 14.9 43.5 11.6
2002-10-30 05:32:05 51°21.614 3°8.287 62.7 14.9 43.8 11.6
2002-10-30 05:32:10 51°21.629 3°8.308 61.2 14.9 43 11.7
2002-10-30 05:32:14 51°21.641 3°8.327 62.5 14.8 42.6 11.8
2002-10-30 05:32:20 51°21.659 3°8.354 62 14.8 43.6 11.8
2002-10-30 05:32:25 51°21.674 3°8.377 61.5 14.9 42.9 11.9
2002-10-30 05:32:30 51°21.689 3°8.399 62.7 14.8 43.3 12
2002-10-30 05:32:34 51°21.701 3°8.418 63 14.9 44.4 12.1
2002-10-30 05:32:40 51°21.72 3°8.444 61 14.9 42.6 12.2
2002-10-30 05:32:45 51°21.733 3°8.469 63.8 14.9 45 12.2
2002-10-30 05:32:50 51°21.749 3°8.49 62.2 14.9 43.4 12.3
2002-10-30 05:32:54 51°21.761 3°8.509 63 14.9 44.3 12.4
2002-10-30 05:33:00 51°21.779 3°8.537 63.5 15 44.1 12.5
2002-10-30 05:33:05 51°21.794 3°8.56 63.3 15 44.3 12.5
2002-10-30 05:33:10 51°21.809 3°8.583 63 14.9 43.5 12.6
2002-10-30 05:33:14 51°21.821 3°8.602 62.8 14.9 43.8 12.7
2002-10-30 05:33:20 51°21.839 3°8.629 62.3 15 43.3 12.7
2002-10-30 05:33:25 51°21.855 3°8.651 61.5 15.1 43 12.9
2002-10-30 05:33:30 51°21.87 3°8.674 61 15 41.8 12.8
2002-10-30 05:33:34 51°21.882 3°8.693 62.7 15 43.2 13
2002-10-30 05:33:40 51°21.9 3°8.72 62.3 15 43.4 13.1
2002-10-30 05:33:45 51°21.916 3°8.741 61.3 15 42 13.2
2002-10-30 05:33:50 51°21.93 3°8.766 62.8 15 43.9 13.2
2002-10-30 05:33:54 51°21.944 3°8.782 60.5 15 41.6 13.3
2002-10-30 05:34:00 51°21.961 3°8.811 63 15 44.2 13.3
2002-10-30 05:34:05 51°21.976 3°8.833 63.5 15 43.6 13.4
2002-10-30 05:34:10 51°21.991 3°8.857 63 15 44.1 13.5
2002-10-30 05:34:15 51°22.006 3°8.88 62.8 15 43.6 13.4
2002-10-30 05:34:20 51°22.021 3°8.903 63.8 15.1 44.1 13.7
2002-10-30 05:34:24 51°22.034 3°8.92 61.8 15.1 42.6 13.8
2002-10-30 05:34:30 51°22.052 3°8.949 62.5 15.1 43.4 13.8
2002-10-30 05:34:34 51°22.065 3°8.966 61.7 15 42.3 13.8
2002-10-30 05:34:40 51°22.083 3°8.994 62 15 43.4 13.9
2002-10-30 05:34:45 51°22.098 3°9.016 61.3 15 42.4 13.9
2002-10-30 05:34:50 51°22.113 3°9.039 62.7 15 43 14
2002-10-30 05:34:54 51°22.125 3°9.058 63.3 15 43.3 14
2002-10-30 05:35:00 51°22.144 3°9.085 63.7 15 44.2 14
2002-10-30 05:35:05 51°22.157 3°9.111 66.5 15 47.1 14
2002-10-30 05:35:10 51°22.172 3°9.135 67.3 15 47.7 14
2002-10-30 05:35:14 51°22.182 3°9.157 70.8 15.1 51.1 14.1
2002-10-30 05:35:20 51°22.198 3°9.188 71.8 15.1 50.9 14.1
2002-10-30 05:35:25 51°22.209 3°9.216 74 15.1 54.1 14.2
2002-10-30 05:35:29 51°22.219 3°9.237 75.3 15.1 54.1 14.3
2002-10-30 05:35:34 51°22.23 3°9.265 76.7 15 56 14.4
2002-10-30 05:35:40 51°22.243 3°9.3 78.3 15.1 57.4 14.5
2002-10-30 05:35:45 51°22.254 3°9.329 79.2 15.2 58.8 14.5
2002-10-30 05:35:50 51°22.264 3°9.358 81.3 15.1 60.6 14.5
2002-10-30 05:35:54 51°22.271 3°9.382 85 14.9 63.5 14.5
2002-10-30 05:36:00 51°22.282 3°9.418 84.8 15 64.7 14.5
2002-10-30 05:36:05 51°22.29 3°9.448 86.3 15 65.4 14.6
2002-10-30 05:36:10 51°22.297 3°9.48 89.7 15 68.4 14.7
2002-10-30 05:36:14 51°22.303 3°9.505 91 15 68.9 14.7
2002-10-30 05:36:20 51°22.309 3°9.543 93.8 15 72.4 14.7
2002-10-30 05:36:25 51°22.316 3°9.575 94 15 72.4 14.7
2002-10-30 05:36:30 51°22.321 3°9.607 95.3 15 73.9 14.8
2002-10-30 05:36:34 51°22.326 3°9.633 96 15 74.2 14.8
2002-10-30 05:36:40 51°22.332 3°9.671 95.5 15 74.4 14.9
2002-10-30 05:36:45 51°22.338 3°9.703 95.2 15 74.1 15
2002-10-30 05:36:50 51°22.344 3°9.735 94.7 15 73.1 15
2002-10-30 05:36:54 51°22.349 3°9.761 95 15.1 73.9 15
2002-10-30 05:37:00 51°22.357 3°9.799 93.8 15.2 72.4 14.9
2002-10-30 05:37:05 51°22.363 3°9.831 94.5 15.1 73.3 15
2002-10-30 05:37:10 51°22.369 3°9.864 94.2 15.1 72.8 15.1
2002-10-30 05:37:14 51°22.374 3°9.889 93.8 15.3 72.9 15
2002-10-30 05:37:20 51°22.381 3°9.928 93.8 15.3 72.6 15.2
2002-10-30 05:37:25 51°22.388 3°9.96 94.5 15.2 72.9 15.2
2002-10-30 05:37:30 51°22.393 3°9.993 94.7 15.2 73.3 15.2
2002-10-30 05:37:34 51°22.399 3°10.018 93.3 15.2 72.1 15.3
2002-10-30 05:37:40 51°22.407 3°10.057 94.2 15.2 73.1 15.4
2002-10-30 05:37:45 51°22.413 3°10.09 94.7 15.1 73 15.4
2002-10-30 05:37:50 51°22.42 3°10.121 92.7 15.1 71.5 15.8
2002-10-30 05:37:54 51°22.425 3°10.147 92.7 15 71.8 16.2
2002-10-30 05:38:00 51°22.433 3°10.184 93.3 15 71.7 16.4
2002-10-30 05:38:05 51°22.439 3°10.216 93.3 15 72.4 17
2002-10-30 05:38:09 51°22.444 3°10.242 94.3 15 72.5 18.8
2002-10-30 05:38:14 51°22.45 3°10.275 95.3 15.2 74.1 18.7
2002-10-30 05:38:20 51°22.457 3°10.313 94.3 15.3 73.5 18.9
2002-10-30 05:38:25 51°22.463 3°10.346 95.2 15.2 74 18.9
2002-10-30 05:38:30 51°22.469 3°10.378 94.7 15.2 73.4 18.9
2002-10-30 05:38:34 51°22.473 3°10.404 95 15.2 73.8 -999
2002-10-30 05:38:40 51°22.481 3°10.443 94.5 15.2 73.4 18.7
2002-10-30 05:38:45 51°22.487 3°10.476 93.8 15.3 73.1 18.7
2002-10-30 05:38:50 51°22.493 3°10.508 93.7 15.3 73.1 18.6
2002-10-30 05:38:54 51°22.498 3°10.534 95 15.1 73.9 17.9
2002-10-30 05:39:00 51°22.505 3°10.572 96.3 15.1 74.3 17.7
2002-10-30 05:39:05 51°22.511 3°10.605 95.3 15.1 74.1 17.5
2002-10-30 05:39:09 51°22.515 3°10.631 95 15.2 74.5 17.4
2002-10-30 05:39:14 51°22.522 3°10.663 94.3 15.3 72.9 17.1
2002-10-30 05:39:20 51°22.528 3°10.702 95 15.2 74.1 17
2002-10-30 05:39:25 51°22.535 3°10.734 95.2 15.2 73.6 16.8
2002-10-30 05:39:30 51°22.541 3°10.767 95 15.1 73.8 16.8
2002-10-30 05:39:34 51°22.545 3°10.793 95.7 15.2 74.2 16.8
2002-10-30 05:39:40 51°22.553 3°10.832 94.3 15.3 74.2 16.7
2002-10-30 05:39:45 51°22.559 3°10.864 94.2 15.2 73.1 16.7
2002-10-30 05:39:49 51°22.563 3°10.89 95 15.2 74.2 16.7
2002-10-30 05:39:54 51°22.569 3°10.923 94.8 15.2 74.1 16.7
2002-10-30 05:40:00 51°22.577 3°10.962 94.5 15.2 73.8 16.6
2002-10-30 05:40:05 51°22.582 3°10.994 95.5 15.2 74.7 16.6
2002-10-30 05:40:10 51°22.588 3°11.026 95 15.1 73.8 16.6
2002-10-30 05:40:14 51°22.593 3°11.052 95 15.1 74.3 16.6
2002-10-30 05:40:20 51°22.6 3°11.09 94.2 15.1 73.3 16.5
2002-10-30 05:40:25 51°22.606 3°11.123 94.7 15 73.9 16.5
2002-10-30 05:40:29 51°22.611 3°11.148 94.3 15 73.3 16.4
2002-10-30 05:40:34 51°22.617 3°11.181 94.2 15.1 73.8 16.3
2002-10-30 05:40:38 51°22.622 3°11.206 93.7 15.1 73.2 16.3